VDPP/PNH METAR and TAF weather

Enter ICAO airport designator
Station Type Date Time Source
VDPP METAR 2020/01/20 18:30 UTC NOAA

VDPP 201830Z VRB02KT 7000 FEW017 28/20 Q1014


Station Type Date Time Source
VDPP Decoded METAR 2020/01/20 18:30 UTC NOAA

Phnom-Penh / Pochentong, Cambodia (VDPP) 11-33N 104-51E 10M
Jan 20, 2020 - 01:30 PM EST / 2020.01.20 1830 UTC
Wind: Variable at 2 MPH (2 KT):0
Visibility: 4 mile(s):0
Sky conditions: mostly clear
Temperature: 82 F (28 C)
Dew Point: 68 F (20 C)
Relative Humidity: 61%
Pressure (altimeter): 29.94 in. Hg (1014 hPa)
ob: VDPP 201830Z VRB02KT 7000 FEW017 28/20 Q1014
cycle: 18

Station Type Date Time Source
VDPP TAF 2020/01/20 18:00 UTC NOAA

TAF VDPP 201700Z 2018/2112 17006KT 9999 SCT017

Example: see airport list